createdAt,value
2018-05-24T00:02:01.991Z,32.63
2018-05-24T00:04:29.486Z,31.43
2018-05-24T00:06:56.959Z,31.03
2018-05-24T00:09:24.458Z,31.97
2018-05-24T00:11:51.909Z,38.93
2018-05-24T00:14:19.416Z,32.30
2018-05-24T00:16:46.896Z,33.17
2018-05-24T00:19:14.378Z,34.47
2018-05-24T00:21:41.871Z,29.10
2018-05-24T00:24:09.339Z,30.80
2018-05-24T00:26:36.816Z,29.83
2018-05-24T00:29:04.320Z,27.83
2018-05-24T00:31:31.794Z,28.83
2018-05-24T00:33:59.304Z,28.53
2018-05-24T00:36:26.854Z,32.93
2018-05-24T00:38:54.317Z,30.80
2018-05-24T00:41:21.779Z,32.10
2018-05-24T00:43:49.252Z,30.43
2018-05-24T00:46:16.761Z,28.20
2018-05-24T00:48:44.226Z,27.90
2018-05-24T00:51:11.709Z,27.23
2018-05-24T00:53:39.187Z,29.67
2018-05-24T00:56:06.673Z,27.17
2018-05-24T00:58:34.210Z,27.33
2018-05-24T01:01:02.562Z,27.10
2018-05-24T01:03:30.022Z,26.97
2018-05-24T01:05:57.522Z,26.50
2018-05-24T01:08:24.986Z,27.07
2018-05-24T01:10:52.450Z,27.77
2018-05-24T01:13:19.941Z,27.30
2018-05-24T01:15:47.489Z,26.30
2018-05-24T01:18:14.947Z,26.10
2018-05-24T01:20:42.424Z,26.90
2018-05-24T01:23:09.926Z,27.63
2018-05-24T01:25:37.414Z,26.20
2018-05-24T01:28:04.940Z,28.90
2018-05-24T01:30:32.434Z,26.40
2018-05-24T01:32:59.902Z,24.47
2018-05-24T01:35:27.379Z,31.27
2018-05-24T01:37:54.878Z,24.83
2018-05-24T01:40:22.428Z,24.70
2018-05-24T01:42:49.920Z,32.40
2018-05-24T01:45:17.407Z,25.10
2018-05-24T01:47:44.878Z,24.37
2018-05-24T01:50:12.431Z,31.43
2018-05-24T01:52:39.892Z,23.90
2018-05-24T01:55:07.370Z,32.40
2018-05-24T01:57:34.883Z,27.33
2018-05-24T02:00:02.369Z,24.40
2018-05-24T02:02:29.843Z,24.47
2018-05-24T02:04:57.384Z,26.10
2018-05-24T02:07:24.902Z,24.77
2018-05-24T02:09:52.854Z,25.77
2018-05-24T02:12:20.354Z,26.20
2018-05-24T02:14:47.845Z,25.67
2018-05-24T02:17:15.312Z,24.07
2018-05-24T02:19:42.806Z,23.53
2018-05-24T02:22:11.038Z,25.13
2018-05-24T02:24:38.524Z,22.60
2018-05-24T02:27:07.557Z,24.03
2018-05-24T02:29:35.056Z,24.47
2018-05-24T02:32:02.610Z,23.53
2018-05-24T02:34:30.140Z,25.07
2018-05-24T02:36:58.208Z,23.80
2018-05-24T02:39:25.714Z,25.20
2018-05-24T02:41:53.246Z,25.27
2018-05-24T02:44:20.722Z,24.50
2018-05-24T02:46:48.238Z,25.93
2018-05-24T02:49:15.806Z,24.13
2018-05-24T02:51:43.288Z,23.83
2018-05-24T02:54:10.793Z,24.17
2018-05-24T02:56:38.290Z,35.37
2018-05-24T02:59:05.766Z,26.80
2018-05-24T03:01:33.359Z,24.10
2018-05-24T03:04:00.815Z,26.37
2018-05-24T03:06:28.320Z,24.63
2018-05-24T03:08:55.776Z,28.30
2018-05-24T03:11:23.287Z,28.97
2018-05-24T03:13:50.791Z,25.92
2018-05-24T03:16:18.275Z,27.53
2018-05-24T03:18:45.787Z,25.00
2018-05-24T03:21:13.289Z,25.20
2018-05-24T03:23:40.805Z,26.90
2018-05-24T03:26:08.292Z,24.17
2018-05-24T03:28:35.800Z,28.40
2018-05-24T03:31:03.323Z,23.27
2018-05-24T03:33:30.840Z,34.30
2018-05-24T03:35:58.304Z,24.33
2018-05-24T03:38:25.806Z,27.00
2018-05-24T03:40:53.313Z,25.70
2018-05-24T03:43:20.811Z,24.40
2018-05-24T03:45:48.272Z,24.47
2018-05-24T03:48:15.769Z,23.80
2018-05-24T03:50:43.251Z,23.63
2018-05-24T03:53:10.729Z,22.23
2018-05-24T03:55:38.207Z,22.93
2018-05-24T03:58:05.732Z,22.43
2018-05-24T04:00:44.815Z,24.40
2018-05-24T04:03:24.118Z,22.27
2018-05-24T04:05:51.595Z,24.30
2018-05-24T04:08:19.059Z,21.87
2018-05-24T04:10:46.547Z,25.43
2018-05-24T04:13:14.040Z,22.33
2018-05-24T04:15:41.520Z,21.60
2018-05-24T04:18:09.006Z,27.70
2018-05-24T04:20:36.531Z,21.27
2018-05-24T04:23:04.247Z,22.00
2018-05-24T04:25:31.767Z,22.43
2018-05-24T04:27:59.345Z,21.20
2018-05-24T04:30:26.846Z,23.50
2018-05-24T04:32:54.413Z,24.30
2018-05-24T04:35:21.890Z,21.60
2018-05-24T04:37:49.363Z,24.90
2018-05-24T04:40:16.861Z,24.40
2018-05-24T04:42:44.356Z,22.07
2018-05-24T04:45:11.829Z,23.13
2018-05-24T04:47:39.311Z,21.30
2018-05-24T04:50:06.860Z,24.87
2018-05-24T04:52:34.410Z,23.33
2018-05-24T04:55:01.902Z,23.03
2018-05-24T04:57:29.423Z,36.27
2018-05-24T04:59:56.882Z,21.40
2018-05-24T05:02:24.359Z,22.20
2018-05-24T05:04:51.941Z,22.33
2018-05-24T05:07:19.445Z,24.13
2018-05-24T05:09:46.979Z,21.17
2018-05-24T05:12:14.491Z,21.87
2018-05-24T05:14:41.968Z,19.10
2018-05-24T05:17:09.474Z,20.60
2018-05-24T05:19:36.981Z,21.13
2018-05-24T05:22:04.447Z,20.50
2018-05-24T05:24:31.911Z,19.90
2018-05-24T05:26:59.409Z,21.70
2018-05-24T05:29:26.873Z,20.23
2018-05-24T05:31:54.345Z,20.87
2018-05-24T05:34:21.822Z,21.80
2018-05-24T05:36:49.283Z,24.00
2018-05-24T05:39:16.765Z,19.30
2018-05-24T05:41:44.270Z,21.73
2018-05-24T05:44:11.724Z,17.67
2018-05-24T05:46:39.185Z,18.07
2018-05-24T05:49:06.662Z,16.57
2018-05-24T05:51:34.109Z,17.00
2018-05-24T05:54:01.573Z,17.50
2018-05-24T05:56:29.050Z,18.63
2018-05-24T05:58:56.538Z,19.03
2018-05-24T06:01:24.015Z,16.17
2018-05-24T06:03:51.517Z,16.10
2018-05-24T06:06:18.979Z,14.27
2018-05-24T06:08:46.448Z,19.47
2018-05-24T06:11:13.931Z,17.33
2018-05-24T06:13:41.392Z,16.63
2018-05-24T06:16:08.847Z,23.23
2018-05-24T06:18:36.341Z,18.17
2018-05-24T06:21:03.806Z,17.23
2018-05-24T06:23:31.266Z,20.47
2018-05-24T06:25:58.750Z,22.80
2018-05-24T06:28:26.285Z,17.23
2018-05-24T06:30:53.691Z,15.83
2018-05-24T06:33:21.164Z,24.17
2018-05-24T06:35:48.614Z,14.60
2018-05-24T06:38:16.072Z,14.97
2018-05-24T06:40:43.557Z,15.67
2018-05-24T06:43:11.039Z,15.93
2018-05-24T06:45:38.537Z,16.40
2018-05-24T06:48:06.025Z,19.70
2018-05-24T06:50:33.502Z,15.83
2018-05-24T06:53:00.984Z,15.33
2018-05-24T06:55:28.447Z,14.53
2018-05-24T06:57:55.936Z,13.70
2018-05-24T07:00:23.446Z,15.00
2018-05-24T07:02:50.908Z,13.83
2018-05-24T07:05:18.378Z,13.77
2018-05-24T07:07:45.862Z,13.33
2018-05-24T07:10:13.350Z,17.37
2018-05-24T07:12:40.821Z,16.20
2018-05-24T07:15:08.329Z,16.03
2018-05-24T07:17:35.810Z,16.67
2018-05-24T07:20:03.300Z,15.80
2018-05-24T07:22:30.774Z,19.40
2018-05-24T07:24:58.320Z,14.13
2018-05-24T07:27:25.805Z,23.50
2018-05-24T07:29:53.313Z,17.13
2018-05-24T07:32:20.767Z,15.80
2018-05-24T07:34:48.231Z,20.90
2018-05-24T07:37:15.738Z,13.20
2018-05-24T07:39:43.286Z,15.73
2018-05-24T07:42:10.704Z,11.37
2018-05-24T07:44:38.207Z,12.03
2018-05-24T07:47:05.675Z,12.50
2018-05-24T07:49:33.202Z,14.27
2018-05-24T07:52:00.743Z,13.73
2018-05-24T07:54:28.226Z,12.27
2018-05-24T07:56:55.680Z,13.93
2018-05-24T07:59:23.210Z,14.63
2018-05-24T08:01:50.674Z,14.37
2018-05-24T08:04:18.144Z,13.97
2018-05-24T08:06:45.634Z,15.37
2018-05-24T08:09:13.119Z,14.60
2018-05-24T08:11:40.604Z,15.23
2018-05-24T08:14:08.077Z,10.60
2018-05-24T08:16:35.590Z,13.60
2018-05-24T08:19:03.078Z,13.50
2018-05-24T08:21:30.559Z,13.40
2018-05-24T08:23:58.079Z,12.40
2018-05-24T08:26:25.564Z,12.67
2018-05-24T08:28:53.031Z,16.63
2018-05-24T08:31:20.487Z,13.77
2018-05-24T08:33:47.957Z,13.63
2018-05-24T08:36:15.431Z,14.30
2018-05-24T08:38:42.905Z,19.77
2018-05-24T08:41:10.379Z,13.10
2018-05-24T08:43:37.852Z,14.20
2018-05-24T08:46:05.323Z,13.60
2018-05-24T08:48:32.810Z,18.53
2018-05-24T08:51:00.282Z,13.20
2018-05-24T08:53:27.808Z,13.00
2018-05-24T08:55:55.250Z,11.00
2018-05-24T08:58:22.714Z,12.57
2018-05-24T09:00:50.176Z,10.90
2018-05-24T09:03:17.677Z,11.37
2018-05-24T09:05:45.159Z,22.23
2018-05-24T09:08:12.627Z,15.93
2018-05-24T09:10:40.113Z,13.83
2018-05-24T09:13:07.591Z,18.50
2018-05-24T09:15:35.054Z,12.57
2018-05-24T09:18:02.546Z,17.87
2018-05-24T09:20:30.081Z,14.43
2018-05-24T09:22:57.542Z,14.17
2018-05-24T09:25:25.102Z,12.73
2018-05-24T09:27:52.704Z,12.83
2018-05-24T09:30:20.189Z,13.90
2018-05-24T09:32:47.738Z,15.17
2018-05-24T09:35:15.207Z,12.73
2018-05-24T09:37:43.400Z,21.23
2018-05-24T09:40:10.905Z,15.37
2018-05-24T09:42:38.390Z,17.90
2018-05-24T09:45:05.919Z,15.07
2018-05-24T09:47:33.457Z,12.63
2018-05-24T09:50:02.460Z,11.70
2018-05-24T09:52:29.972Z,16.83
2018-05-24T09:54:57.483Z,12.17
2018-05-24T09:57:24.947Z,11.03
2018-05-24T09:59:52.426Z,14.13
2018-05-24T10:02:19.938Z,12.17
2018-05-24T10:04:47.402Z,10.47
2018-05-24T10:07:14.901Z,12.80
2018-05-24T10:09:42.374Z,11.43
2018-05-24T10:12:09.947Z,11.37
2018-05-24T10:14:37.463Z,9.60
2018-05-24T10:17:04.970Z,12.70
2018-05-24T10:19:32.462Z,16.40
2018-05-24T10:22:00.456Z,17.20
2018-05-24T10:24:27.952Z,9.23
2018-05-24T10:26:55.420Z,10.03
2018-05-24T10:29:22.919Z,11.43
2018-05-24T10:31:50.374Z,10.10
2018-05-24T10:34:17.851Z,9.70
2018-05-24T10:36:45.313Z,10.10
2018-05-24T10:39:12.806Z,10.17
2018-05-24T10:41:40.285Z,10.80
2018-05-24T10:44:07.754Z,10.57
2018-05-24T10:46:35.225Z,11.10
2018-05-24T10:49:02.696Z,11.50
2018-05-24T10:51:30.173Z,13.93
2018-05-24T10:53:57.682Z,9.63
2018-05-24T10:56:25.164Z,8.37
2018-05-24T10:58:52.636Z,8.90
2018-05-24T11:01:20.106Z,8.53
2018-05-24T11:03:47.592Z,11.33
2018-05-24T11:06:15.075Z,10.30
2018-05-24T11:08:42.555Z,10.40
2018-05-24T11:11:10.015Z,8.30
2018-05-24T11:13:37.487Z,10.27
2018-05-24T11:16:05.013Z,13.93
2018-05-24T11:18:32.502Z,8.50
2018-05-24T11:21:00.026Z,8.63
2018-05-24T11:23:27.491Z,8.87
2018-05-24T11:25:54.966Z,9.47
2018-05-24T11:28:22.504Z,19.13
2018-05-24T11:30:50.025Z,8.73
2018-05-24T11:33:17.506Z,15.37
2018-05-24T11:35:45.065Z,7.70
2018-05-24T11:38:12.571Z,11.50
2018-05-24T11:40:40.032Z,7.90
2018-05-24T11:43:07.680Z,9.40
2018-05-24T11:45:35.086Z,7.73
2018-05-24T11:48:02.545Z,7.87
2018-05-24T11:50:30.032Z,7.50
2018-05-24T11:52:57.526Z,8.57
2018-05-24T11:55:24.986Z,7.77
2018-05-24T11:57:52.472Z,11.77
2018-05-24T12:00:19.944Z,8.60
2018-05-24T12:02:47.407Z,7.93
2018-05-24T12:05:14.884Z,8.87
2018-05-24T12:07:42.351Z,10.77
2018-05-24T12:10:09.865Z,11.27
2018-05-24T12:12:37.329Z,9.57
2018-05-24T12:15:04.813Z,9.10
2018-05-24T12:17:32.279Z,17.03
2018-05-24T12:19:59.810Z,8.27
2018-05-24T12:22:27.323Z,14.67
2018-05-24T12:24:54.801Z,8.33
2018-05-24T12:27:22.278Z,6.60
2018-05-24T12:29:49.750Z,7.73
2018-05-24T12:32:17.224Z,8.47
2018-05-24T12:34:44.755Z,31.73
2018-05-24T12:37:12.255Z,8.60
2018-05-24T12:39:39.703Z,8.90
2018-05-24T12:42:07.183Z,18.40
2018-05-24T12:44:34.686Z,10.60
2018-05-24T12:47:02.157Z,11.67
2018-05-24T12:49:29.641Z,10.87
2018-05-24T12:51:57.105Z,10.57
2018-05-24T12:54:24.560Z,11.67
2018-05-24T12:56:52.051Z,11.20
2018-05-24T12:59:19.525Z,9.37
2018-05-24T13:01:47.001Z,10.00
2018-05-24T13:04:14.532Z,11.40
2018-05-24T13:06:41.940Z,12.73
2018-05-24T13:09:09.411Z,16.20
2018-05-24T13:11:36.882Z,12.40
2018-05-24T13:14:04.362Z,13.37
2018-05-24T13:16:31.850Z,13.00
2018-05-24T13:18:59.322Z,15.63
2018-05-24T13:21:26.834Z,13.43
2018-05-24T13:23:54.295Z,11.07
2018-05-24T13:26:21.786Z,11.10
2018-05-24T13:28:49.246Z,17.37
2018-05-24T13:31:16.706Z,11.33
2018-05-24T13:33:44.191Z,11.40
2018-05-24T13:36:11.681Z,20.43
2018-05-24T13:38:39.155Z,14.03
2018-05-24T13:41:06.669Z,25.00
2018-05-24T13:43:34.148Z,36.10
2018-05-24T13:46:01.643Z,11.27
2018-05-24T13:48:29.133Z,16.67
2018-05-24T13:50:56.573Z,19.20
2018-05-24T13:53:24.050Z,9.70
2018-05-24T13:55:51.539Z,11.77
2018-05-24T13:58:18.990Z,11.77
2018-05-24T14:00:46.462Z,15.07
2018-05-24T14:03:13.943Z,18.43
2018-05-24T14:05:41.428Z,16.83
2018-05-24T14:08:08.930Z,13.40
2018-05-24T14:10:36.450Z,16.37
2018-05-24T14:13:03.910Z,15.40
2018-05-24T14:15:31.357Z,17.40
2018-05-24T14:17:58.827Z,15.27
2018-05-24T14:20:26.291Z,18.33
2018-05-24T14:22:53.743Z,13.73
2018-05-24T14:25:21.769Z,15.60
2018-05-24T14:27:49.257Z,14.53
2018-05-24T14:30:17.572Z,22.30
2018-05-24T14:32:45.057Z,15.50
2018-05-24T14:35:12.517Z,17.07
2018-05-24T14:37:39.974Z,27.50
2018-05-24T14:40:07.483Z,19.10
2018-05-24T14:42:34.992Z,17.90
2018-05-24T14:45:03.164Z,14.67
2018-05-24T14:47:30.677Z,19.90
2018-05-24T14:49:58.187Z,15.30
2018-05-24T14:52:25.641Z,17.63
2018-05-24T14:54:53.101Z,17.80
2018-05-24T14:57:20.596Z,16.20
2018-05-24T14:59:48.041Z,20.23
2018-05-24T15:02:15.568Z,15.90
2018-05-24T15:04:43.030Z,16.67
2018-05-24T15:07:10.489Z,15.33
2018-05-24T15:09:37.979Z,21.17
2018-05-24T15:12:05.519Z,17.50
2018-05-24T15:14:32.999Z,17.87
2018-05-24T15:17:00.474Z,18.70
2018-05-24T15:19:28.023Z,19.13
2018-05-24T15:21:55.502Z,15.33
2018-05-24T15:24:22.978Z,15.77
2018-05-24T15:26:50.438Z,17.40
2018-05-24T15:29:17.914Z,13.90
2018-05-24T15:31:45.414Z,13.50
2018-05-24T15:34:12.888Z,13.90
2018-05-24T15:36:40.375Z,13.73
2018-05-24T15:39:07.857Z,13.93
2018-05-24T15:44:09.564Z,10.03
2018-05-24T15:46:37.042Z,12.80
2018-05-24T15:49:04.666Z,11.03
2018-05-24T15:51:32.210Z,12.50
2018-05-24T15:53:59.708Z,15.50
2018-05-24T15:56:28.029Z,12.30
2018-05-24T15:58:55.510Z,11.37
2018-05-24T16:01:22.965Z,9.90
2018-05-24T16:03:54.551Z,14.93
2018-05-24T16:06:22.267Z,11.43
2018-05-24T16:08:51.282Z,11.80
2018-05-24T16:11:19.683Z,10.33
2018-05-24T16:13:47.359Z,12.23
2018-05-24T16:16:14.954Z,14.63
2018-05-24T16:18:42.426Z,12.07
2018-05-24T16:21:11.056Z,14.50
2018-05-24T16:23:38.557Z,13.43
2018-05-24T16:26:06.045Z,16.73
2018-05-24T16:28:33.546Z,15.23
2018-05-24T16:31:01.027Z,15.23
2018-05-24T16:33:28.515Z,21.17
2018-05-24T16:35:56.046Z,16.57
2018-05-24T16:38:23.646Z,16.73
2018-05-24T16:40:51.155Z,17.70
2018-05-24T16:43:18.624Z,15.90
2018-05-24T16:45:46.106Z,15.57
2018-05-24T16:48:13.574Z,16.30
2018-05-24T16:50:41.076Z,14.53
2018-05-24T16:53:08.649Z,13.43
2018-05-24T16:55:36.188Z,14.27
2018-05-24T16:58:03.718Z,13.73
2018-05-24T17:00:31.303Z,18.50
2018-05-24T17:02:58.773Z,15.63
2018-05-24T17:05:26.268Z,16.93
2018-05-24T17:07:53.744Z,14.07
2018-05-24T17:10:22.027Z,14.00
2018-05-24T17:12:58.102Z,13.90
2018-05-24T17:15:25.627Z,17.40
2018-05-24T17:18:03.107Z,16.77
2018-05-24T17:36:43.368Z,14.60
2018-05-24T17:39:10.862Z,15.33
2018-05-24T17:41:38.391Z,15.73
2018-05-24T17:44:05.884Z,16.90
2018-05-24T17:46:33.367Z,15.70
2018-05-24T17:49:00.920Z,18.23
2018-05-24T17:51:28.428Z,17.53
2018-05-24T17:53:56.130Z,18.00
2018-05-24T17:56:23.700Z,15.40
2018-05-24T17:59:08.148Z,15.30
2018-05-24T18:01:36.508Z,16.70
2018-05-24T18:04:05.629Z,14.23
2018-05-24T18:06:33.129Z,13.87
2018-05-24T18:09:00.670Z,15.23
2018-05-24T18:11:28.194Z,15.87
2018-05-24T18:13:55.691Z,17.43
2018-05-24T18:16:23.261Z,16.17
2018-05-24T18:18:50.749Z,17.10
2018-05-24T18:21:18.251Z,19.03
2018-05-24T18:23:46.047Z,17.43
2018-05-24T18:26:13.662Z,17.97
2018-05-24T18:28:41.151Z,21.50
2018-05-24T18:31:08.695Z,17.23
2018-05-24T18:33:36.190Z,18.23
2018-05-24T18:36:04.123Z,21.27
2018-05-24T18:38:31.629Z,20.87
2018-05-24T18:41:04.297Z,22.83
2018-05-24T18:46:04.944Z,21.17
2018-05-24T18:48:32.442Z,23.33
2018-05-24T18:51:00.081Z,28.10
2018-05-24T18:53:27.630Z,27.20
2018-05-24T18:55:56.522Z,27.00
2018-05-24T18:58:24.139Z,26.93
2018-05-24T19:00:51.697Z,26.17
2018-05-24T19:03:19.218Z,26.70
2018-05-24T19:05:46.736Z,27.03
2018-05-24T19:08:14.313Z,20.67
2018-05-24T19:10:41.880Z,20.10
2018-05-24T19:13:09.463Z,17.43
2018-05-24T19:15:37.020Z,20.07
2018-05-24T19:18:04.575Z,21.07
2018-05-24T19:20:32.153Z,19.77
2018-05-24T19:22:59.657Z,19.60
2018-05-24T19:25:27.317Z,18.70
2018-05-24T19:27:54.952Z,23.57
2018-05-24T19:30:23.439Z,16.60
2018-05-24T19:32:51.198Z,19.87
2018-05-24T19:35:24.638Z,18.03
2018-05-24T19:37:52.236Z,17.37
2018-05-24T19:40:20.613Z,16.90
2018-05-24T19:42:48.190Z,16.03
2018-05-24T19:45:15.734Z,17.77
2018-05-24T19:47:43.358Z,15.73
2018-05-24T19:50:10.916Z,18.40
2018-05-24T19:52:39.938Z,17.47
2018-05-24T19:55:09.229Z,19.10
2018-05-24T19:57:36.874Z,15.93
2018-05-24T20:00:04.540Z,13.73
2018-05-24T20:02:38.193Z,13.43
2018-05-24T20:05:19.540Z,12.10
2018-05-24T20:07:48.052Z,13.43
2018-05-24T20:10:17.142Z,12.67
2018-05-24T20:12:44.691Z,12.80
2018-05-24T20:15:12.221Z,13.87
2018-05-24T20:17:40.001Z,13.93
2018-05-24T20:20:07.550Z,12.87
2018-05-24T20:22:35.216Z,13.13
2018-05-24T20:25:02.778Z,13.90
2018-05-24T20:27:30.258Z,16.17
2018-05-24T20:29:57.833Z,18.57
2018-05-24T20:32:25.323Z,15.60
2018-05-24T20:34:52.840Z,14.83
2018-05-24T20:37:20.727Z,15.53
2018-05-24T20:39:48.250Z,19.20
2018-05-24T20:42:15.728Z,16.33
2018-05-24T20:44:43.217Z,14.60
2018-05-24T20:47:11.274Z,16.40
2018-05-24T20:49:38.766Z,16.17
2018-05-24T20:52:06.321Z,16.37
2018-05-24T20:54:34.202Z,14.33
2018-05-24T20:57:01.715Z,13.10
2018-05-24T20:59:29.211Z,12.53
2018-05-24T21:01:56.830Z,17.73
2018-05-24T21:04:24.401Z,10.63
2018-05-24T21:06:56.909Z,12.13
2018-05-24T21:09:24.581Z,13.70
2018-05-24T21:11:53.586Z,10.73
2018-05-24T21:14:21.115Z,12.27
2018-05-24T21:16:49.045Z,14.10
2018-05-24T21:19:16.550Z,12.93
2018-05-24T21:21:44.110Z,11.83
2018-05-24T21:24:11.613Z,10.70
2018-05-24T21:26:40.048Z,11.07
2018-05-24T21:29:08.100Z,11.13
2018-05-24T21:31:35.619Z,12.40
2018-05-24T21:34:03.098Z,11.10
2018-05-24T21:36:30.760Z,13.77
2018-05-24T21:38:58.338Z,11.70
2018-05-24T21:41:25.823Z,11.00
2018-05-24T21:43:53.306Z,10.47
2018-05-24T21:46:21.324Z,11.50
2018-05-24T21:48:48.939Z,11.33
2018-05-24T21:51:16.552Z,11.37
2018-05-24T21:53:44.275Z,11.67
2018-05-24T21:56:12.407Z,16.40
2018-05-24T21:58:39.894Z,19.47
2018-05-24T22:01:07.569Z,15.30
2018-05-24T22:03:35.085Z,12.53
2018-05-24T22:06:02.873Z,12.53
2018-05-24T22:08:30.630Z,13.60
2018-05-24T22:20:38.188Z,13.90
2018-05-24T22:23:05.717Z,12.63
2018-05-24T22:25:33.238Z,12.63
2018-05-24T22:28:00.767Z,17.73
2018-05-24T22:30:28.258Z,13.53
2018-05-24T22:32:55.749Z,17.23
2018-05-24T22:35:23.264Z,15.63
2018-05-24T22:37:50.767Z,14.60
2018-05-24T22:40:18.312Z,14.53
2018-05-24T22:42:45.942Z,14.97
2018-05-24T22:45:13.401Z,13.67
2018-05-24T22:47:40.902Z,14.13
2018-05-24T22:50:10.644Z,15.90
2018-05-24T22:52:38.317Z,15.50
2018-05-24T22:55:06.063Z,15.33
2018-05-24T22:57:33.608Z,14.70
2018-05-24T23:00:01.087Z,19.73
2018-05-24T23:02:28.545Z,19.47
2018-05-24T23:04:56.032Z,15.17
2018-05-24T23:07:23.533Z,18.30
2018-05-24T23:09:51.019Z,13.53
2018-05-24T23:12:18.519Z,14.07
2018-05-24T23:14:45.982Z,15.60
2018-05-24T23:17:13.578Z,15.00
2018-05-24T23:19:41.069Z,15.33
2018-05-24T23:22:08.642Z,16.20
2018-05-24T23:24:36.097Z,15.87
2018-05-24T23:27:03.767Z,19.30
2018-05-24T23:29:31.974Z,18.43
2018-05-24T23:31:59.538Z,17.57
2018-05-24T23:34:27.064Z,17.17
2018-05-24T23:36:54.545Z,16.87
2018-05-24T23:39:22.055Z,20.27
2018-05-24T23:41:49.643Z,17.90
2018-05-24T23:44:17.132Z,19.90
2018-05-24T23:46:44.934Z,16.30
2018-05-24T23:49:12.449Z,18.93
2018-05-24T23:51:39.950Z,16.60
2018-05-24T23:54:07.654Z,17.43
2018-05-24T23:56:36.278Z,16.90
2018-05-24T23:59:03.809Z,17.87
